Time;durP1;ratioP1;P1;durP2;ratioP2;P2;SDS_P1;SDS_P2;PMS_P1;PMS_P2;Temp;Humidity;BMP_temperature;BMP_pressure;BME280_temperature;BME280_humidity;BME280_pressure;Samples;Min_cycle;Max_cycle;Signal;HPM_P1;HPM_P2
2024/01/17 00:00:08;;;;;;;1999.90;999.90;;;;;;;1.80;56.86;96435.78;5114272;28;20397;-70
2024/01/17 00:02:36;;;;;;;1999.90;999.90;;;;;;;1.76;57.08;96433.22;5114422;28;20066;-64
2024/01/17 00:05:05;;;;;;;1999.90;999.90;;;;;;;1.73;56.50;96445.25;5114122;28;20508;-67
2024/01/17 00:07:32;;;;;;;1999.90;999.90;;;;;;;1.69;56.02;96441.84;5114184;28;20134;-68
2024/01/17 00:09:59;;;;;;;1999.90;999.90;;;;;;;1.66;55.69;96440.97;5114258;28;20051;-69
2024/01/17 00:12:26;;;;;;;1999.90;999.90;;;;;;;1.66;55.92;96446.16;5114077;28;20147;-66
2024/01/17 00:14:53;;;;;;;1999.90;999.90;;;;;;;1.66;55.98;96436.69;5114050;28;20059;-65
2024/01/17 00:17:20;;;;;;;1999.90;999.90;;;;;;;1.62;56.10;96443.56;5114028;28;20096;-68
2024/01/17 00:19:47;;;;;;;1999.90;999.90;;;;;;;1.61;56.50;96447.03;5113864;28;20493;-67
2024/01/17 00:22:16;;;;;;;1999.90;999.90;;;;;;;1.61;56.64;96453.91;5114289;28;20056;-68
2024/01/17 00:24:43;;;;;;;1999.90;999.90;;;;;;;1.57;57.05;96462.50;5113857;28;20074;-66
2024/01/17 00:27:13;;;;;;;1999.90;999.90;;;;;;;1.57;57.50;96463.38;5113994;28;20405;-68
2024/01/17 00:29:40;;;;;;;1999.90;999.90;;;;;;;1.54;57.08;96459.94;5114248;28;20058;-67
2024/01/17 00:32:07;;;;;;;1999.90;999.90;;;;;;;1.54;57.06;96460.81;5113915;28;20051;-68
2024/01/17 00:34:34;;;;;;;1999.90;999.90;;;;;;;1.50;56.72;96456.50;5114014;28;20043;-66
2024/01/17 00:37:01;;;;;;;1999.90;999.90;;;;;;;1.47;56.50;96449.66;5113647;28;20555;-67
2024/01/17 00:39:29;;;;;;;1999.90;999.90;;;;;;;1.45;56.83;96451.38;5113399;28;20050;-68
2024/01/17 00:41:56;;;;;;;1999.90;999.90;;;;;;;1.46;56.86;96437.63;5113597;28;20453;-67
2024/01/17 00:44:27;;;;;;;1999.90;999.90;;;;;;;1.49;57.50;96426.44;5113707;28;20079;-70
2024/01/17 00:46:53;;;;;;;1999.90;999.90;;;;;;;1.44;57.11;96433.34;5113531;28;20047;-68
2024/01/17 00:49:20;;;;;;;1999.90;999.90;;;;;;;1.35;57.01;96442.81;5113571;28;20055;-67
2024/01/17 00:51:47;;;;;;;1999.90;999.90;;;;;;;1.33;56.95;96449.72;5113269;28;20048;-70
2024/01/17 00:54:15;;;;;;;1999.90;999.90;;;;;;;1.29;56.76;96447.97;5113417;28;20043;-64
2024/01/17 00:56:43;;;;;;;1999.90;999.90;;;;;;;1.21;56.94;96432.53;5113452;28;20513;-66
2024/01/17 00:59:10;;;;;;;1999.90;999.90;;;;;;;1.11;57.55;96435.97;5113534;28;20083;-67
2024/01/17 01:01:37;;;;;;;1999.90;999.90;;;;;;;1.02;57.45;96439.44;5113434;28;20047;-66
2024/01/17 01:04:05;;;;;;;1999.90;999.90;;;;;;;0.95;57.48;96427.44;5113354;28;20039;-67
2024/01/17 01:06:32;;;;;;;1999.90;999.90;;;;;;;0.75;57.85;96438.59;5113292;28;20082;-67
2024/01/17 01:08:59;;;;;;;1999.90;999.90;;;;;;;0.66;57.88;96441.22;5113387;28;20048;-70
2024/01/17 01:11:30;;;;;;;1999.90;999.90;;;;;;;0.57;58.07;96432.63;5113261;28;20058;-69
2024/01/17 01:13:59;;;;;;;1999.90;999.90;;;;;;;0.48;58.07;96425.75;5113445;28;20238;-68
2024/01/17 01:16:26;;;;;;;1999.90;999.90;;;;;;;0.42;58.42;96430.06;5113211;28;20047;-69
2024/01/17 01:18:53;;;;;;;1999.90;999.90;;;;;;;0.35;58.42;96424.03;5113422;28;20143;-67
2024/01/17 01:21:20;;;;;;;1999.90;999.90;;;;;;;0.25;58.34;96430.91;5113348;28;20497;-66
2024/01/17 01:23:48;;;;;;;1999.90;999.90;;;;;;;0.08;57.91;96418.00;5113369;28;20409;-69
2024/01/17 01:26:15;;;;;;;1999.90;999.90;;;;;;;-0.05;58.36;96428.28;5112994;28;20451;-66
2024/01/17 01:28:42;;;;;;;1999.90;999.90;;;;;;;-0.16;58.55;96427.38;5113352;28;20113;-62
2024/01/17 01:31:10;;;;;;;1999.90;999.90;;;;;;;-0.18;58.92;96429.09;5113133;28;20047;-70
2024/01/17 01:33:37;;;;;;;1999.90;999.90;;;;;;;-0.24;59.16;96418.78;5113579;28;20100;-65
2024/01/17 01:36:06;;;;;;;1999.90;999.90;;;;;;;-0.30;59.04;96419.63;5113347;28;20055;-70
2024/01/17 01:38:33;;;;;;;1999.90;999.90;;;;;;;-0.40;59.00;96417.03;5113098;28;20048;-65
2024/01/17 01:41:00;;;;;;;1999.90;999.90;;;;;;;-0.60;59.77;96429.78;5113138;28;20052;-70
2024/01/17 01:43:27;;;;;;;1999.90;999.90;;;;;;;-0.69;60.15;96422.91;5113094;28;20091;-63
2024/01/17 01:46:11;;;;;;;1999.90;999.90;;;;;;;-0.73;60.06;96440.88;5112793;28;20051;-64
2024/01/17 01:48:41;;;;;;;1999.90;999.90;;;;;;;-0.74;60.28;96429.75;5112943;28;20059;-66
2024/01/17 01:51:09;;;;;;;1999.90;999.90;;;;;;;-0.83;60.66;96421.97;5112761;28;20047;-63
2024/01/17 01:53:37;;;;;;;1999.90;999.90;;;;;;;-0.83;60.42;96427.13;5116163;28;20113;-66
2024/01/17 01:56:05;;;;;;;1999.90;999.90;;;;;;;-0.81;60.72;96433.13;5116803;28;20054;-64
2024/01/17 01:58:35;;;;;;;1999.90;999.90;;;;;;;-0.87;61.16;96423.69;5116716;28;20043;-67
2024/01/17 02:01:06;;;;;;;1999.90;999.90;;;;;;;-1.05;61.31;96420.13;5116943;28;20093;-66
2024/01/17 02:03:33;;;;;;;;;;;;;;;-1.02;62.08;96421.88;5116995;28;20088;-62
2024/01/17 02:06:02;;;;;;;1999.90;999.90;;;;;;;-1.07;62.50;96418.41;5116547;28;19923;-63
2024/01/17 02:08:30;;;;;;;1999.90;999.90;;;;;;;-1.13;62.55;96419.25;5116516;28;20040;-69
2024/01/17 02:10:57;;;;;;;1999.90;999.90;;;;;;;-1.08;62.62;96425.25;5116746;28;20055;-65
2024/01/17 02:13:24;;;;;;;1999.90;999.90;;;;;;;-1.08;62.61;96424.41;5116366;28;20079;-66
2024/01/17 02:15:51;;;;;;;1999.90;999.90;;;;;;;-1.03;62.87;96415.88;5116283;28;20090;-63
2024/01/17 02:18:19;;;;;;;1999.90;999.90;;;;;;;-0.98;62.97;96412.47;5116440;28;20139;-65
2024/01/17 02:20:46;;;;;;;1999.90;999.90;;;;;;;-0.96;62.94;96415.94;5116204;28;20617;-67
2024/01/17 02:23:27;;;;;;;1999.90;999.90;;;;;;;-0.94;63.10;96412.50;5116082;28;20142;-67
2024/01/17 02:25:58;;;;;;;1999.90;999.90;;;;;;;-0.95;63.30;96402.22;5116116;28;20379;-67
2024/01/17 02:28:26;;;;;;;;;;;;;;;-0.92;63.47;96407.38;5116568;28;20048;-65
2024/01/17 02:30:53;;;;;;;1999.90;999.90;;;;;;;-0.92;63.42;96409.94;5115963;28;19966;-67
2024/01/17 02:33:21;;;;;;;1999.90;999.90;;;;;;;-0.91;63.91;96411.66;5116335;28;20055;-65
2024/01/17 02:35:48;;;;;;;1999.90;999.90;;;;;;;-0.86;63.59;96420.25;5116036;28;20067;-66
2024/01/17 02:38:15;;;;;;;1999.90;999.90;;;;;;;-0.81;64.50;96413.41;5115951;28;20069;-67
2024/01/17 02:40:42;;;;;;;1999.90;999.90;;;;;;;-0.81;64.24;96415.16;5115768;28;20058;-64
2024/01/17 02:43:11;;;;;;;1999.90;999.90;;;;;;;-0.79;64.38;96413.44;5115682;28;20047;-67
2024/01/17 02:45:37;;;;;;;1999.90;999.90;;;;;;;-0.68;64.66;96413.47;5115740;28;20081;-66
2024/01/17 02:48:05;;;;;;;1999.90;999.90;;;;;;;-0.61;64.85;96404.94;5115822;28;20048;-64
2024/01/17 02:50:32;;;;;;;1999.90;999.90;;;;;;;-0.55;64.78;96404.97;5115630;28;20088;-69
2024/01/17 02:52:59;;;;;;;1999.90;999.90;;;;;;;-0.49;64.91;96409.28;5115579;28;20086;-66
2024/01/17 02:55:26;;;;;;;1999.90;999.90;;;;;;;-0.41;64.71;96411.88;5115825;28;20044;-67
2024/01/17 02:57:54;;;;;;;1999.90;999.90;;;;;;;-0.40;64.85;96414.47;5115748;28;20039;-64
2024/01/17 03:00:22;;;;;;;1999.90;999.90;;;;;;;-0.34;64.93;96420.47;5115698;28;20390;-67
2024/01/17 03:02:49;;;;;;;1999.90;999.90;;;;;;;-0.31;65.34;96416.19;5115118;28;20126;-66
2024/01/17 03:05:16;;;;;;;1999.90;999.90;;;;;;;-0.33;64.88;96412.75;5115369;28;20428;-69
2024/01/17 03:07:44;;;;;;;1999.90;999.90;;;;;;;-0.30;64.88;96417.91;5115403;28;20051;-65
2024/01/17 03:10:12;;;;;;;1999.90;999.90;;;;;;;-0.28;64.91;96423.91;5115288;28;20046;-66
2024/01/17 03:12:40;;;;;;;1999.90;999.90;;;;;;;-0.29;64.76;96422.22;5115273;28;20126;-67
2024/01/17 03:15:10;;;;;;;1999.90;999.90;;;;;;;-0.30;64.74;96422.22;5114997;28;20497;-65
2024/01/17 03:17:38;;;;;;;1999.90;999.90;;;;;;;-0.26;64.93;96417.09;5115328;28;20107;-67
2024/01/17 03:20:10;;;;;;;1999.90;999.90;;;;;;;-0.23;65.14;96417.94;5115026;28;20465;-67
2024/01/17 03:22:39;;;;;;;1999.90;999.90;;;;;;;-0.20;65.20;96418.81;5114987;28;20052;-62
2024/01/17 03:25:07;;;;;;;1999.90;999.90;;;;;;;-0.18;65.02;96414.50;5115045;28;20124;-66
2024/01/17 03:27:34;;;;;;;1999.90;999.90;;;;;;;-0.16;64.56;96417.97;5114829;28;20485;-67
2024/01/17 03:30:02;;;;;;;1999.90;999.90;;;;;;;-0.18;64.47;96419.66;5114930;28;20497;-67
2024/01/17 03:32:29;;;;;;;1999.90;999.90;;;;;;;-0.17;64.44;96423.09;5114869;28;20043;-67
2024/01/17 03:34:57;;;;;;;1999.90;999.90;;;;;;;-0.23;64.95;96418.81;5114867;28;20520;-69
2024/01/17 03:37:24;;;;;;;1999.90;999.90;;;;;;;-0.26;65.51;96405.94;5114789;28;20043;-69
2024/01/17 03:39:51;;;;;;;1999.90;999.90;;;;;;;-0.23;65.55;96405.06;5114599;28;20485;-68
2024/01/17 03:42:18;;;;;;;1999.90;999.90;;;;;;;-0.22;65.71;96406.78;5114703;28;20147;-68
2024/01/17 03:44:46;;;;;;;1999.90;999.90;;;;;;;-0.30;65.88;96404.22;5114547;28;20083;-68
2024/01/17 03:47:14;;;;;;;1999.90;999.90;;;;;;;-0.31;66.27;96416.19;5114504;28;20050;-69
2024/01/17 03:49:41;;;;;;;1999.90;999.90;;;;;;;-0.29;66.18;96408.50;5114430;28;20051;-65
2024/01/17 03:52:09;;;;;;;1999.90;999.90;;;;;;;-0.33;66.44;96412.75;5114158;28;20547;-65
2024/01/17 03:54:37;;;;;;;1999.90;999.90;;;;;;;-0.33;65.74;96419.63;5114424;28;20040;-66
2024/01/17 03:57:05;;;;;;;1999.90;999.90;;;;;;;-0.31;65.35;96415.31;5114429;28;20040;-66
2024/01/17 03:59:32;;;;;;;1999.90;999.90;;;;;;;-0.41;65.09;96422.16;5114172;28;20138;-68
2024/01/17 04:01:59;;;;;;;1999.90;999.90;;;;;;;-0.42;64.81;96421.28;5114525;28;20048;-68
2024/01/17 04:04:26;;;;;;;1999.90;999.90;;;;;;;-0.40;65.07;96426.44;5114381;28;20056;-65
2024/01/17 04:06:53;;;;;;;1999.90;999.90;;;;;;;-0.46;65.45;96429.84;5114105;28;20493;-67
2024/01/17 04:09:22;;;;;;;1999.90;999.90;;;;;;;-0.50;65.70;96433.28;5114256;28;20101;-65
2024/01/17 04:11:49;;;;;;;1999.90;999.90;;;;;;;-0.49;65.55;96432.41;5114103;28;20126;-65
2024/01/17 04:14:16;;;;;;;1999.90;999.90;;;;;;;-0.58;65.86;96427.22;5114044;28;20040;-64
2024/01/17 04:16:43;;;;;;;1999.90;999.90;;;;;;;-0.62;66.30;96428.94;5113647;28;20077;-64
2024/01/17 04:19:10;;;;;;;1999.90;999.90;;;;;;;-0.78;66.47;96426.28;5113885;28;20039;-65
2024/01/17 04:21:37;;;;;;;1999.90;999.90;;;;;;;-0.69;66.39;96429.75;5114006;28;20048;-62
2024/01/17 04:24:05;;;;;;;1999.90;999.90;;;;;;;-0.65;66.13;96442.63;5113800;28;20516;-68
2024/01/17 04:26:33;;;;;;;1999.90;999.90;;;;;;;-0.68;65.87;96447.75;5113869;28;20056;-66
2024/01/17 04:29:00;;;;;;;1999.90;999.90;;;;;;;-0.66;65.88;96443.47;5113873;28;20509;-65
2024/01/17 04:31:28;;;;;;;1999.90;999.90;;;;;;;-0.68;65.63;96450.34;5113673;28;20048;-67
2024/01/17 04:33:56;;;;;;;1999.90;999.90;;;;;;;-0.69;65.84;96451.16;5113642;28;20100;-66
2024/01/17 04:36:28;;;;;;;1999.90;999.90;;;;;;;-0.70;65.83;96456.28;5113701;28;20047;-67
2024/01/17 04:38:55;;;;;;;1999.90;999.90;;;;;;;-0.84;65.69;96463.94;5113670;28;20494;-65
2024/01/17 04:41:23;;;;;;;1999.90;999.90;;;;;;;-0.90;65.84;96468.19;5113570;28;20047;-68
2024/01/17 04:43:51;;;;;;;1999.90;999.90;;;;;;;-0.94;66.22;96475.84;5113584;28;20444;-63
2024/01/17 04:46:18;;;;;;;1999.90;999.90;;;;;;;-1.03;65.98;96472.38;5113596;28;20083;-66
2024/01/17 04:48:46;;;;;;;1999.90;999.90;;;;;;;-1.07;65.97;96478.34;5113683;28;20088;-64
2024/01/17 04:51:13;;;;;;;1999.90;999.90;;;;;;;-1.17;66.20;96479.13;5113319;28;20048;-68
2024/01/17 04:53:42;;;;;;;1999.90;999.90;;;;;;;-1.20;66.56;96482.50;5113446;28;20536;-65
2024/01/17 04:56:10;;;;;;;1999.90;999.90;;;;;;;-1.29;66.88;96485.03;5113508;28;20064;-66
2024/01/17 04:58:37;;;;;;;1999.90;999.90;;;;;;;-1.32;67.00;96470.44;5113433;28;20051;-66
2024/01/17 05:01:06;;;;;;;1999.90;999.90;;;;;;;-1.46;67.00;96472.91;5113448;28;20047;-65
2024/01/17 05:03:34;;;;;;;1999.90;999.90;;;;;;;-1.46;66.88;96482.31;5113369;28;20055;-66
2024/01/17 05:06:01;;;;;;;1999.90;999.90;;;;;;;-1.58;67.28;96493.31;5113284;28;20070;-65
2024/01/17 05:08:28;;;;;;;1999.90;999.90;;;;;;;-1.78;68.00;96487.16;5113288;28;20044;-66
2024/01/17 05:10:56;;;;;;;1999.90;999.90;;;;;;;-1.87;68.59;96481.09;5113309;28;20146;-64
2024/01/17 05:13:23;;;;;;;1999.90;999.90;;;;;;;-1.87;68.38;96486.22;5113250;28;20127;-64
2024/01/17 05:15:50;;;;;;;1999.90;999.90;;;;;;;-1.93;68.33;96480.16;5113281;28;20051;-69
2024/01/17 05:18:19;;;;;;;1999.90;999.90;;;;;;;-1.92;68.80;96486.16;5113317;28;20054;-67
2024/01/17 05:20:47;;;;;;;1999.90;999.90;;;;;;;-2.01;69.12;96489.50;5113240;28;20047;-65
2024/01/17 05:23:14;;;;;;;1999.90;999.90;;;;;;;-2.10;70.07;96502.22;5113117;28;20051;-65
2024/01/17 05:25:41;;;;;;;1999.90;999.90;;;;;;;-2.19;70.10;96500.41;5113223;28;20054;-61
2024/01/17 05:28:08;;;;;;;1999.90;999.90;;;;;;;-2.18;70.21;96499.53;5117194;28;20081;-66
2024/01/17 05:30:35;;;;;;;1999.90;999.90;;;;;;;-2.16;69.93;96492.75;5117181;28;20374;-63
2024/01/17 05:33:02;;;;;;;1999.90;999.90;;;;;;;-2.21;69.80;96494.38;5117255;28;20105;-64
2024/01/17 05:35:31;;;;;;;1999.90;999.90;;;;;;;-2.30;70.30;96488.31;5117124;28;20050;-69
2024/01/17 05:37:59;;;;;;;1999.90;999.90;;;;;;;-2.38;71.17;96489.91;5117095;28;20047;-64
2024/01/17 05:40:26;;;;;;;1999.90;999.90;;;;;;;-2.41;71.00;96501.00;5117101;28;20489;-64
2024/01/17 05:42:53;;;;;;;1999.90;999.90;;;;;;;-2.36;71.43;96503.63;5116895;28;20040;-64
2024/01/17 05:45:20;;;;;;;1999.90;999.90;;;;;;;-2.32;70.99;96509.66;5117136;28;20039;-68
2024/01/17 05:47:48;;;;;;;1999.90;999.90;;;;;;;-2.35;70.87;96514.75;5116785;28;20059;-64
2024/01/17 05:50:15;;;;;;;1999.90;999.90;;;;;;;-2.39;71.26;96506.13;5116745;28;20097;-64
2024/01/17 05:52:45;;;;;;;1999.90;999.90;;;;;;;-2.38;72.35;96512.13;5116698;28;20101;-62
2024/01/17 05:55:13;;;;;;;1999.90;999.90;;;;;;;-2.34;72.41;96521.56;5116799;28;20048;-63
2024/01/17 05:57:40;;;;;;;1999.90;999.90;;;;;;;-2.28;72.18;96522.50;5116657;28;20051;-65
2024/01/17 06:00:10;;;;;;;1999.90;999.90;;;;;;;-2.24;72.21;96525.97;5116715;28;20047;-63
2024/01/17 06:02:38;;;;;;;1999.90;999.90;;;;;;;-2.20;71.75;96526.88;5116510;28;20075;-68
2024/01/17 06:05:06;;;;;;;1999.90;999.90;;;;;;;-2.16;71.88;96519.22;5116535;28;20079;-64
2024/01/17 06:07:33;;;;;;;1999.90;999.90;;;;;;;-2.08;72.26;96526.16;5116428;28;20048;-65
2024/01/17 06:10:01;;;;;;;1999.90;999.90;;;;;;;-2.08;72.40;96526.16;5116819;28;20127;-65
2024/01/17 06:12:28;;;;;;;1999.90;999.90;;;;;;;-1.97;72.77;96536.53;5116418;28;20090;-62
2024/01/17 06:14:54;;;;;;;1999.90;999.90;;;;;;;-1.87;72.47;96546.03;5116255;28;20051;-66
2024/01/17 06:17:21;;;;;;;1999.90;999.90;;;;;;;-1.78;72.47;96545.28;5116275;28;20088;-65
2024/01/17 06:19:48;;;;;;;1999.90;999.90;;;;;;;-1.65;71.46;96546.31;5116340;28;20079;-68
2024/01/17 06:22:18;;;;;;;1999.90;999.90;;;;;;;-1.47;72.09;96542.19;5116364;28;20401;-66
2024/01/17 06:24:45;;;;;;;1999.90;999.90;;;;;;;-0.55;70.63;96546.34;5116189;28;20055;-65
2024/01/17 06:27:15;;;;;;;1999.90;999.90;;;;;;;0.40;67.57;96537.28;5116083;28;20455;-62
2024/01/17 06:29:42;;;;;;;1999.90;999.90;;;;;;;1.05;65.79;96533.94;5116388;28;20040;-64
2024/01/17 06:32:09;;;;;;;1999.90;999.90;;;;;;;2.06;62.39;96536.28;5116069;28;20104;-64
2024/01/17 06:34:36;;;;;;;1999.90;999.90;;;;;;;3.37;56.88;96535.38;5115952;28;20047;-65
2024/01/17 06:37:04;;;;;;;1999.90;999.90;;;;;;;4.58;52.83;96550.41;5115940;28;20459;-68
2024/01/17 06:39:31;;;;;;;1999.90;999.90;;;;;;;5.72;49.58;96555.53;5115148;28;20039;-65
2024/01/17 06:41:59;;;;;;;1999.90;999.90;;;;;;;6.90;47.07;96558.34;5115812;28;20561;-64
2024/01/17 06:44:27;;;;;;;1999.90;999.90;;;;;;;7.88;44.43;96552.47;5115790;28;20113;-65
2024/01/17 06:46:55;;;;;;;1999.90;999.90;;;;;;;8.90;42.06;96547.84;5115996;28;20043;-64
2024/01/17 06:49:22;;;;;;;1999.90;999.90;;;;;;;9.97;40.49;96553.06;5115748;28;20047;-66
2024/01/17 06:51:49;;;;;;;1999.90;999.90;;;;;;;10.73;38.69;96558.19;5115753;28;20079;-67
2024/01/17 06:54:16;;;;;;;1999.90;999.90;;;;;;;11.31;36.88;96560.28;5115745;28;20071;-67
2024/01/17 06:56:44;;;;;;;1999.90;999.90;;;;;;;11.96;36.20;96556.75;5115523;28;20481;-67
2024/01/17 06:59:11;;;;;;;1999.90;999.90;;;;;;;12.76;35.04;96572.47;5115566;28;20090;-68
2024/01/17 07:01:40;;;;;;;1999.90;999.90;;;;;;;13.47;34.08;96573.50;5115458;28;20047;-68
2024/01/17 07:04:07;;;;;;;1999.90;999.90;;;;;;;13.43;32.56;96568.47;5115448;28;20097;-64
2024/01/17 07:06:34;;;;;;;1999.90;999.90;;;;;;;13.58;32.70;96565.09;5115467;28;20047;-64
2024/01/17 07:09:01;;;;;;;1999.90;999.90;;;;;;;14.14;31.58;96572.84;5115427;28;20047;-64
2024/01/17 07:11:28;;;;;;;1999.90;999.90;;;;;;;14.50;30.70;96591.16;5115285;28;20120;-67
2024/01/17 07:13:56;;;;;;;1999.90;999.90;;;;;;;15.24;29.63;96583.72;5115307;28;20052;-68
2024/01/17 07:16:24;;;;;;;1999.90;999.90;;;;;;;16.09;28.05;96579.78;5115339;28;20048;-66
2024/01/17 07:18:53;;;;;;;1999.90;999.90;;;;;;;16.40;27.43;96575.28;5115529;28;20085;-64
2024/01/17 07:21:20;;;;;;;1999.90;999.90;;;;;;;16.64;27.01;96579.97;5115120;28;20504;-65
2024/01/17 07:23:47;;;;;;;1999.90;999.90;;;;;;;16.99;26.41;96569.94;5115156;28;20086;-63
2024/01/17 07:26:14;;;;;;;1999.90;999.90;;;;;;;17.00;26.07;96574.25;5115025;28;20135;-67
2024/01/17 07:28:41;;;;;;;1999.90;999.90;;;;;;;16.42;27.04;96578.69;5115325;28;20044;-67
2024/01/17 07:31:08;;;;;;;1999.90;999.90;;;;;;;16.02;27.28;96578.44;5114867;28;20485;-67
2024/01/17 07:33:35;;;;;;;1999.90;999.90;;;;;;;16.28;27.82;96579.50;5114845;28;20047;-65
2024/01/17 07:36:04;;;;;;;1999.90;999.90;;;;;;;17.16;26.86;96574.19;5114834;28;20048;-64
2024/01/17 07:38:31;;;;;;;1999.90;999.90;;;;;;;18.08;26.21;96575.25;5114670;28;20472;-66
2024/01/17 07:40:58;;;;;;;1999.90;999.90;;;;;;;17.96;25.95;96575.16;5114674;28;20075;-64
2024/01/17 07:43:25;;;;;;;1999.90;999.90;;;;;;;18.28;25.37;96569.50;5114589;28;20043;-69
2024/01/17 07:45:52;;;;;;;1999.90;999.90;;;;;;;18.56;24.97;96559.63;5114739;28;20104;-66
2024/01/17 07:48:20;;;;;;;1999.90;999.90;;;;;;;19.49;23.48;96561.94;5114675;28;20047;-68
2024/01/17 07:50:47;;;;;;;1999.90;999.90;;;;;;;19.78;22.75;96568.66;5114543;28;20058;-64
2024/01/17 07:53:16;;;;;;;1999.90;999.90;;;;;;;20.40;22.48;96566.66;5114474;28;20051;-66
2024/01/17 07:55:43;;;;;;;1999.90;999.90;;;;;;;20.40;22.61;96566.66;5114471;28;20058;-68
2024/01/17 07:58:12;;;;;;;1999.90;999.90;;;;;;;19.69;22.77;96565.72;5114359;28;20051;-64
2024/01/17 08:00:39;;;;;;;1999.90;999.90;;;;;;;19.35;23.35;96556.81;5114418;28;20048;-65
2024/01/17 08:03:07;;;;;;;1999.90;999.90;;;;;;;19.68;23.39;96552.56;5114487;28;20489;-68
2024/01/17 08:05:34;;;;;;;1999.90;999.90;;;;;;;19.82;23.06;96554.19;5114431;28;20096;-66
2024/01/17 08:08:02;;;;;;;1999.90;999.90;;;;;;;19.85;23.29;96569.91;5114069;28;20054;-68
2024/01/17 08:10:31;;;;;;;1999.90;999.90;;;;;;;20.05;22.80;96564.91;5114136;28;20375;-65
2024/01/17 08:12:58;;;;;;;1999.90;999.90;;;;;;;20.21;22.68;96559.28;5114058;28;20048;-67
2024/01/17 08:15:25;;;;;;;1999.90;999.90;;;;;;;20.59;22.62;96546.63;5114094;28;20043;-65
2024/01/17 08:17:52;;;;;;;1999.90;999.90;;;;;;;20.94;22.63;96550.97;5114378;28;20077;-62
2024/01/17 08:20:19;;;;;;;1999.90;999.90;;;;;;;20.91;23.11;96545.91;5114021;28;20044;-66
2024/01/17 08:22:47;;;;;;;1999.90;999.90;;;;;;;21.01;23.18;96542.50;5113902;28;20194;-64
2024/01/17 08:25:14;;;;;;;1999.90;999.90;;;;;;;20.47;24.27;96534.31;5113901;28;20482;-64
2024/01/17 08:27:43;;;;;;;1999.90;999.90;;;;;;;20.03;25.00;96541.16;5113820;28;20165;-67
2024/01/17 08:30:11;;;;;;;1999.90;999.90;;;;;;;19.44;25.33;96542.84;5114045;28;20039;-64
2024/01/17 08:32:38;;;;;;;1999.90;999.90;;;;;;;19.60;25.40;96534.59;5113875;28;20048;-65
2024/01/17 08:35:06;;;;;;;1999.90;999.90;;;;;;;19.75;25.10;96547.66;5113736;28;20051;-68
2024/01/17 08:37:35;;;;;;;1999.90;999.90;;;;;;;18.62;26.03;96547.75;5113699;28;20076;-65
2024/01/17 08:40:02;;;;;;;1999.90;999.90;;;;;;;18.23;27.34;96545.13;5113700;28;20047;-68
2024/01/17 08:42:29;;;;;;;1999.90;999.90;;;;;;;16.55;29.49;96535.66;5113761;28;20039;-66
2024/01/17 08:44:58;;;;;;;1999.90;999.90;;;;;;;16.22;30.05;96532.38;5095708;28;20101;-64
2024/01/17 08:47:25;;;;;;;1999.90;999.90;;;;;;;15.46;31.44;96532.41;5113480;28;20040;-68
2024/01/17 08:49:53;;;;;;;1999.90;999.90;;;;;;;15.02;31.84;96534.03;5113497;28;20051;-67
2024/01/17 08:52:20;;;;;;;1999.90;999.90;;;;;;;14.66;32.66;96531.50;5113331;28;20047;-64
2024/01/17 08:54:47;;;;;;;1999.90;999.90;;;;;;;13.99;34.38;96536.78;5113660;28;20059;-65
2024/01/17 08:57:15;;;;;;;1999.90;999.90;;;;;;;13.98;34.07;96527.22;5113746;28;20043;-63
2024/01/17 08:59:42;;;;;;;1999.90;999.90;;;;;;;14.00;33.92;96520.94;5113388;28;20039;-63
2024/01/17 09:02:11;;;;;;;1999.90;999.90;;;;;;;14.02;34.10;96524.34;5112945;28;20104;-65
2024/01/17 09:04:39;;;;;;;1999.90;999.90;;;;;;;13.55;35.18;96517.13;5113637;28;20048;-66
2024/01/17 09:07:08;;;;;;;1999.90;999.90;;;;;;;13.39;35.74;96516.09;5113380;28;20455;-65
2024/01/17 09:09:35;;;;;;;1999.90;999.90;;;;;;;13.00;36.41;96519.72;5113471;28;20048;-65
2024/01/17 09:12:02;;;;;;;1999.90;999.90;;;;;;;12.86;36.86;96520.41;5113355;28;20123;-66
2024/01/17 09:14:29;;;;;;;1999.90;999.90;;;;;;;11.97;39.58;96508.63;5113520;28;20044;-69
2024/01/17 09:16:56;;;;;;;1999.90;999.90;;;;;;;11.22;41.04;96493.44;5113290;28;20074;-67
2024/01/17 09:19:25;;;;;;;1999.90;999.90;;;;;;;10.97;41.67;96483.97;5113206;28;20485;-67
2024/01/17 09:21:53;;;;;;;1999.90;999.90;;;;;;;10.70;42.13;96478.94;5113302;28;20097;-69
2024/01/17 09:24:21;;;;;;;1999.90;999.90;;;;;;;10.51;42.51;96477.06;5113268;28;20113;-69
2024/01/17 09:26:51;;;;;;;1999.90;999.90;;;;;;;10.10;44.43;96477.69;5113288;28;20040;-66
2024/01/17 09:29:18;;;;;;;1999.90;999.90;;;;;;;9.80;44.94;96470.03;5113060;28;20569;-66
2024/01/17 09:31:45;;;;;;;1999.90;999.90;;;;;;;9.78;45.13;96464.03;5113206;28;20051;-67
2024/01/17 09:34:12;;;;;;;1999.90;999.90;;;;;;;9.63;45.42;96461.03;5113180;28;20448;-68
2024/01/17 09:36:41;;;;;;;1999.90;999.90;;;;;;;9.48;45.92;96459.81;5113063;28;20054;-65
2024/01/17 09:39:08;;;;;;;1999.90;999.90;;;;;;;9.48;47.27;96467.66;5113098;28;20504;-64
2024/01/17 09:41:35;;;;;;;1999.90;999.90;;;;;;;9.58;46.38;96460.38;5113327;28;20044;-68
2024/01/17 09:44:03;;;;;;;1999.90;999.90;;;;;;;9.39;46.88;96463.59;5113163;28;20048;-69
2024/01/17 09:46:34;;;;;;;1999.90;999.90;;;;;;;9.37;47.28;96459.34;5112890;28;20043;-68
2024/01/17 09:49:01;;;;;;;1999.90;999.90;;;;;;;9.46;46.84;96474.72;5112948;28;20094;-67
2024/01/17 09:51:32;;;;;;;1999.90;999.90;;;;;;;9.51;46.97;96475.38;5112753;28;20105;-66
2024/01/17 09:54:04;;;;;;;;;;;;;;;9.62;46.78;96472.41;5113409;28;20070;-68
2024/01/17 09:56:33;;;;;;;1999.90;999.90;;;;;;;9.55;46.88;96476.16;5112909;28;19920;-70
2024/01/17 09:59:09;;;;;;;1999.90;999.90;;;;;;;9.37;46.98;96461.97;5112765;28;20520;-66
2024/01/17 10:01:37;;;;;;;1999.90;999.90;;;;;;;9.20;46.71;96456.44;5112872;28;20046;-65
2024/01/17 10:04:05;;;;;;;1999.90;999.90;;;;;;;9.04;46.35;96453.47;5113018;28;20044;-65
2024/01/17 10:06:33;;;;;;;1999.90;999.90;;;;;;;8.89;47.21;96444.41;5112788;28;20052;-65
2024/01/17 10:09:02;;;;;;;1999.90;999.90;;;;;;;8.94;47.31;96436.44;5112640;28;20058;-66
2024/01/17 10:11:30;;;;;;;1999.90;999.90;;;;;;;8.95;47.11;96427.69;5112802;28;20047;-68
2024/01/17 10:13:57;;;;;;;1999.90;999.90;;;;;;;8.92;47.22;96431.25;5114748;28;20048;-67
2024/01/17 10:16:26;;;;;;;1999.90;999.90;;;;;;;8.92;47.21;96430.41;5116426;28;20043;-69
2024/01/17 10:18:53;;;;;;;1999.90;999.90;;;;;;;8.91;47.28;96426.09;5116697;28;20171;-68
2024/01/17 10:21:20;;;;;;;1999.90;999.90;;;;;;;8.81;47.40;96428.13;5116271;28;20171;-68
2024/01/17 10:23:47;;;;;;;1999.90;999.90;;;;;;;8.78;48.90;96423.88;5116216;28;20420;-66
2024/01/17 10:26:16;;;;;;;1999.90;999.90;;;;;;;8.62;48.62;96422.66;5116126;28;20134;-68
2024/01/17 10:28:45;;;;;;;1999.90;999.90;;;;;;;8.81;47.73;96404.66;5116099;28;20051;-68
2024/01/17 10:31:12;;;;;;;1999.90;999.90;;;;;;;8.97;47.34;96405.84;5116105;28;20087;-70
2024/01/17 10:33:41;;;;;;;1999.90;999.90;;;;;;;8.97;47.57;96402.38;5116223;28;20048;-67
2024/01/17 10:36:09;;;;;;;1999.90;999.90;;;;;;;8.93;46.86;96385.13;5116233;28;20079;-71
2024/01/17 10:38:36;;;;;;;1999.90;999.90;;;;;;;8.96;47.30;96379.81;5115965;28;20040;-66
2024/01/17 10:41:07;;;;;;;1999.90;999.90;;;;;;;9.18;46.89;96377.31;5115954;28;20082;-67
2024/01/17 10:43:53;;;;;;;1999.90;999.90;;;;;;;9.30;46.14;96369.97;5115788;28;20044;-64
2024/01/17 10:46:20;;;;;;;1999.90;999.90;;;;;;;9.40;46.44;96379.19;5115865;28;20386;-66
2024/01/17 10:48:47;;;;;;;1999.90;999.90;;;;;;;9.44;46.68;96375.53;5115656;28;20544;-65
2024/01/17 10:51:20;;;;;;;1999.90;999.90;;;;;;;9.56;47.06;96373.38;5115557;28;20485;-69
2024/01/17 10:53:49;;;;;;;1999.90;999.90;;;;;;;9.60;46.79;96370.59;5115896;28;20481;-68
2024/01/17 10:56:19;;;;;;;1999.90;999.90;;;;;;;9.81;46.12;96365.50;5115670;28;20463;-65
2024/01/17 10:58:49;;;;;;;1999.90;999.90;;;;;;;9.81;45.74;96354.22;5115019;28;20100;-69